Flight Track Log - Related Links

Times and Time Zones

All times are in EDT time to prevent confusion due to time zone crossing. See the SLI2074 flight status page for this flight to view local times or setup timezone preferences in your user account.

Time Position Orientation Groundspeed Altitude Reporting Facility
EDT Latitude Longitude Course Direction KTS MPH feet Rate Location/Type
Wed 11:24:00 PM 19.8442 -99.9710 296° West  Level Estimated
Wed 11:25:00 PM 19.8848 -100.0611 296° West  Level Estimated
Wed 11:26:00 PM 19.9253 -100.1513 296° West  Level Estimated
Wed 11:27:00 PM 19.9657 -100.2415 296° West  Level Estimated
Wed 11:28:00 PM 20.0061 -100.3318 295° West  Level Estimated
Wed 11:29:00 PM 20.0465 -100.4222 295° West  Level Estimated
Wed 11:30:00 PM 20.0868 -100.5125 295° West  Level Estimated
Wed 11:31:00 PM 20.1271 -100.6030 295° West  Level Estimated
Wed 11:32:00 PM 20.1673 -100.6934 295° West  Level Estimated
Wed 11:33:00 PM 20.2075 -100.7839 295° West  Level Estimated
Wed 11:34:00 PM 20.2476 -100.8745 295° West  Level Estimated
Wed 11:35:00 PM 20.2877 -100.9651 295° West  Level Estimated
Wed 11:36:00 PM 20.3278 -101.0557 295° West  Level Estimated
Wed 11:37:00 PM 20.3678 -101.1464 295° West  Level Estimated
Wed 11:38:00 PM 20.4077 -101.2372 295° West  Level Estimated
Wed 11:39:00 PM 20.4476 -101.3280 295° West  Level Estimated
Wed 11:40:00 PM 20.4875 -101.4188 295° West  Level Estimated
Wed 11:41:00 PM 20.5273 -101.5097 295° West  Level Estimated
Wed 11:42:00 PM 20.5670 -101.6007 295° West  Level Estimated
Wed 11:43:00 PM 20.6067 -101.6916 295° West  Level Estimated
Wed 11:44:00 PM 20.6464 -101.7827 295° West  Level Estimated
Wed 11:45:00 PM 20.6860 -101.8737 295° West  Level Estimated
Wed 11:46:00 PM 20.7256 -101.9649 295° West  Level Estimated
Wed 11:47:00 PM 20.7651 -102.0561 295° West  Level Estimated
Wed 11:48:00 PM 20.8046 -102.1473 295° West  Level Estimated
Wed 11:49:00 PM 20.8440 -102.2385 295° West  Level Estimated
Wed 11:50:00 PM 20.8834 -102.3299 295° West  Level Estimated
Wed 11:51:00 PM 20.9227 -102.4212 295° West  Level Estimated
Wed 11:52:00 PM 20.9620 -102.5126 295° West  Level Estimated
Wed 11:53:00 PM 21.0012 -102.6041 295° West  Level Estimated
Wed 11:54:00 PM 21.0404 -102.6956 295° West  Level Estimated
Wed 11:55:00 PM 21.0795 -102.7872 295° West  Level Estimated
Wed 11:56:00 PM 21.1186 -102.8788 295° West  Level Estimated
Wed 11:57:00 PM 21.1576 -102.9704 295° West  Level Estimated
Wed 11:58:00 PM 21.1966 -103.0621 295° West  Level Estimated
Wed 11:59:00 PM 21.2355 -103.1539 294° West  Level Estimated
Thu 12:00:00 AM 21.2744 -103.2457 294° West  Level Estimated
Thu 12:01:00 AM 21.3132 -103.3375 294° West  Level Estimated
Thu 12:02:00 AM 21.3520 -103.4294 294° West  Level Estimated
Thu 12:03:00 AM 21.3908 -103.5213 294° West  Level Estimated
Thu 12:04:00 AM 21.4294 -103.6133 294° West  Level Estimated
Thu 12:05:00 AM 21.4681 -103.7054 294° West  Level Estimated
Thu 12:06:00 AM 21.5066 -103.7975 294° West  Level Estimated
Thu 12:07:00 AM 21.5452 -103.8896 294° West  Level Estimated
Thu 12:08:00 AM 21.5837 -103.9818 294° West  Level Estimated
Thu 12:09:00 AM 21.6221 -104.0740 294° West  Level Estimated
Thu 12:10:00 AM 21.6605 -104.1663 294° West  Level Estimated
Thu 12:11:00 AM 21.6988 -104.2586 294° West  Level Estimated
Thu 12:12:00 AM 21.7371 -104.3510 294° West  Level Estimated
Thu 12:13:00 AM 21.7753 -104.4435 294° West  Level Estimated
Thu 12:14:00 AM 21.8135 -104.5359 294° West  Level Estimated
Thu 12:15:00 AM 21.8516 -104.6285 294° West  Level Estimated
Thu 12:16:00 AM 21.8897 -104.7210 294° West  Level Estimated
Thu 12:17:00 AM 21.9277 -104.8137 294° West  Level Estimated
Thu 12:18:00 AM 21.9657 -104.9063 294° West  Level Estimated
Thu 12:19:00 AM 22.0036 -104.9991 294° West  Level Estimated
Thu 12:20:00 AM 22.0414 -105.0919 294° West  Level Estimated
Thu 12:21:00 AM 22.0793 -105.1847 294° West  Level Estimated
Thu 12:22:00 AM 22.1170 -105.2776 294° West  Level Estimated
Thu 12:23:00 AM 22.1547 -105.3705 294° West  Level Estimated
Thu 12:24:00 AM 22.1924 -105.4635 294° West  Level Estimated
Thu 12:25:00 AM 22.2300 -105.5565 294° West  Level Estimated
Thu 12:26:00 AM 22.2675 -105.6496 294° West  Level Estimated
Thu 12:27:00 AM 22.3050 -105.7427 294° West  Level Estimated
Thu 12:28:00 AM 22.3425 -105.8359 293° West  Level Estimated
Thu 12:29:00 AM 22.3799 -105.9291 293° West  Level Estimated
Thu 12:30:00 AM 22.4172 -106.0224 293° West  Level Estimated
Thu 12:31:00 AM 22.4545 -106.1157 293° West  Level Estimated
Thu 12:32:00 AM 22.4917 -106.2091 293° West  Level Estimated
Thu 12:33:00 AM 22.5289 -106.3026 293° West  Level Estimated
Thu 12:34:00 AM 22.5660 -106.3960 293° West  Level Estimated
Thu 12:35:00 AM 22.6031 -106.4896 293° West  Level Estimated
Thu 12:36:00 AM 22.6401 -106.5831 293° West  Level Estimated
Thu 12:37:00 AM 22.6770 -106.6768 293° West  Level Estimated
Thu 12:38:00 AM 22.7139 -106.7704 293° West  Level Estimated
Thu 12:39:00 AM 22.7508 -106.8642 293° West  Level Estimated
Thu 12:40:00 AM 22.7876 -106.9580 293° West  Level Estimated
Thu 12:41:00 AM 22.8243 -107.0518 293° West  Level Estimated
Thu 12:42:00 AM 22.8610 -107.1457 293° West  Level Estimated
Thu 12:43:00 AM 22.8977 -107.2396 293° West  Level Estimated
Thu 12:44:00 AM 22.9342 -107.3336 293° West  Level Estimated
Thu 12:45:00 AM 22.9708 -107.4276 293° West  Level Estimated
Thu 12:46:00 AM 23.0072 -107.5217 293° West  Level Estimated
Thu 12:47:00 AM 23.0436 -107.6158 293° West  Level Estimated
Thu 12:48:00 AM 23.0800 -107.7100 293° West  Level Estimated
Thu 12:49:00 AM 23.1163 -107.8043 293° West  Level Estimated
Thu 12:50:00 AM 23.1525 -107.8986 293° West  Level Estimated
Thu 12:51:00 AM 23.1887 -107.9929 293° West  Level Estimated
Thu 12:52:00 AM 23.2248 -108.0873 293° West  Level Estimated
Thu 12:53:00 AM 23.2609 -108.1817 293° West  Level Estimated
Thu 12:54:00 AM 23.2969 -108.2762 293° West  Level Estimated
Thu 12:55:00 AM 23.3329 -108.3708 293° West  Level Estimated
Thu 12:56:00 AM 23.3688 -108.4653 292° West  Level Estimated
Thu 12:57:00 AM 23.4046 -108.5600 292° West  Level Estimated
Thu 12:58:00 AM 23.4404 -108.6547 292° West  Level Estimated
Thu 12:59:00 AM 23.4762 -108.7494 292° West  Level Estimated
Thu 01:00:00 AM 23.5118 -108.8442 292° West  Level Estimated
Thu 01:01:00 AM 23.5474 -108.9391 292° West  Level Estimated
Thu 01:02:00 AM 23.5830 -109.0340 292° West  Level Estimated
Thu 01:03:00 AM 23.6185 -109.1289 292° West  Level Estimated
Thu 01:04:00 AM 23.6539 -109.2239 292° West  Level Estimated
Thu 01:05:00 AM 23.6893 -109.3190 292° West  Level Estimated
Thu 01:06:00 AM 23.7247 -109.4141 292° West  Level Estimated
Thu 01:07:00 AM 23.7599 -109.5093 292° West  Level Estimated
Thu 01:08:00 AM 23.7951 -109.6045 292° West  Level Estimated
Thu 01:09:00 AM 23.8303 -109.6997 292° West  Level Estimated
Thu 01:10:00 AM 23.8654 -109.7951 292° West  Level Estimated
Thu 01:11:00 AM 23.9004 -109.8904 292° West  Level Estimated
Thu 01:12:00 AM 23.9354 -109.9858 292° West  Level Estimated
Thu 01:13:00 AM 23.9703 -110.0813 292° West  Level Estimated
Thu 01:14:00 AM 24.0052 -110.1768 292° West  Level Estimated
Thu 01:15:00 AM 24.0400 -110.2724 292° West  Level Estimated
Thu 01:16:00 AM 24.0727 -110.3625 292° West  Level Estimated
Thu 01:17:00 AM 24.0727 -110.3625 49° Northeast  Level Estimated
Thu 01:18:00 AM 24.0727 -110.3625 49° Northeast  Level Estimated
Thu 01:19:00 AM 24.0727 -110.3625 49° Northeast  Level Estimated
Thu 01:20:00 AM 24.0727 -110.3625 49° Northeast  Level Estimated
Thu 01:21:00 AM 24.0727 -110.3625 49° Northeast  Level Estimated
Thu 01:22:00 AM 24.0727 -110.3625 49° Northeast  Level Estimated
Thu 01:23:00 AM 24.0727 -110.3625 49° Northeast  Level Estimated
Thu 01:24:00 AM 24.0727 -110.3625 49° Northeast  Level Estimated
Thu 01:25:00 AM 24.0727 -110.3625 49° Northeast  Level Estimated
Thu 01:26:00 AM 24.0727 -110.3625 49° Northeast  Level Estimated
Thu 01:27:00 AM 24.0727 -110.3625 49° Northeast  Level Estimated

Login

Don't have an account? Register now (free) for customized features, flight alerts, and more!